Time;durP1;ratioP1;P1;durP2;ratioP2;P2;SDS_P1;SDS_P2;PMS_P1;PMS_P2;Temp;Humidity;BMP_temperature;BMP_pressure;BME280_temperature;BME280_humidity;BME280_pressure;Samples;Min_cycle;Max_cycle;Signal;HPM_P1;HPM_P2
2022/12/10 00:01:14;;;;;;;293.40;80.03;;;;;;;;;;5064494;28;20078;-53
2022/12/10 00:03:40;;;;;;;282.30;79.13;;;;;;;;;;5062466;28;20041;-53
2022/12/10 00:06:08;;;;;;;355.88;91.53;;;;;;;;;;5059428;28;20024;-56
2022/12/10 00:08:35;;;;;;;313.08;86.78;;;;;;;;;;5045132;28;20045;-56
2022/12/10 00:11:05;;;;;;;302.30;81.47;;;;;;;;;;5060116;28;20041;-54
2022/12/10 00:13:31;;;;;;;274.55;80.30;;;;;;;;;;5044118;28;20106;-53
2022/12/10 00:16:01;;;;;;;273.15;78.82;;;0.70;99.90;;;;;;5058542;28;20041;-52
2022/12/10 00:18:27;;;;;;;245.75;72.70;;;0.90;99.90;;;;;;5063562;28;20052;-53
2022/12/10 00:20:54;;;;;;;267.45;81.20;;;;;;;;;;5060485;28;20041;-52
2022/12/10 00:23:20;;;;;;;254.73;79.60;;;;;;;;;;5041279;28;20119;-52
2022/12/10 00:25:46;;;;;;;270.88;75.25;;;;;;;;;;5060236;28;20266;-55
2022/12/10 00:28:13;;;;;;;229.85;70.47;;;;;;;;;;5063078;28;20041;-55
2022/12/10 00:30:39;;;;;;;242.35;76.10;;;;;;;;;;5061688;28;20186;-51
2022/12/10 00:33:05;;;;;;;247.60;72.18;;;;;;;;;;5055078;28;20142;-52
2022/12/10 00:35:31;;;;;;;235.98;70.28;;;;;;;;;;5062431;28;20047;-51
2022/12/10 00:37:57;;;;;;;250.45;74.10;;;;;;;;;;5036521;28;20040;-52
2022/12/10 00:40:23;;;;;;;244.85;71.13;;;;;;;;;;5061646;28;20041;-52
2022/12/10 00:42:49;;;;;;;224.18;70.07;;;1.00;99.90;;;;;;5060542;28;20040;-51
2022/12/10 00:45:15;;;;;;;225.90;70.32;;;;;;;;;;5058489;28;20040;-53
2022/12/10 00:47:40;;;;;;;232.52;74.63;;;1.00;99.90;;;;;;5058819;28;20047;-53
2022/12/10 00:50:07;;;;;;;235.63;75.63;;;;;;;;;;5055221;28;20116;-55
2022/12/10 00:52:33;;;;;;;244.23;73.05;;;;;;;;;;5061180;28;20052;-55
2022/12/10 00:54:59;;;;;;;243.10;74.43;;;;;;;;;;5057104;28;20040;-55
2022/12/10 00:57:25;;;;;;;201.43;66.22;;;;;;;;;;5060592;28;20111;-54
2022/12/10 00:59:51;;;;;;;216.88;68.93;;;;;;;;;;5063163;28;20115;-54
2022/12/10 01:02:16;;;;;;;207.70;67.65;;;1.10;99.90;;;;;;5059991;28;20425;-52
2022/12/10 01:04:42;;;;;;;195.30;65.88;;;;;;;;;;5069378;28;20039;-51
2022/12/10 01:07:10;;;;;;;186.73;67.15;;;;;;;;;;5062236;28;20501;-57
2022/12/10 01:09:36;;;;;;;195.45;64.85;;;;;;;;;;5060455;28;20036;-56
2022/12/10 01:12:03;;;;;;;182.68;63.67;;;1.10;99.90;;;;;;5063783;28;20032;-55
2022/12/10 01:14:32;;;;;;;187.60;63.17;;;1.30;99.90;;;;;;5062511;28;20048;-51
2022/12/10 01:17:04;;;;;;;202.60;68.55;;;1.50;99.90;;;;;;5063048;28;20628;-55
2022/12/10 01:19:32;;;;;;;181.57;63.47;;;1.00;99.90;;;;;;5067511;28;20116;-53
2022/12/10 01:21:58;;;;;;;194.50;65.95;;;1.00;99.90;;;;;;5063100;28;20037;-54
2022/12/10 01:24:25;;;;;;;214.63;66.47;;;;;;;;;;5058590;28;20037;-51
2022/12/10 01:26:51;;;;;;;186.52;63.55;;;;;;;;;;5067487;28;20068;-57
2022/12/10 01:29:17;;;;;;;190.52;66.43;;;1.10;99.90;;;;;;5053915;28;20041;-56
2022/12/10 01:31:43;;;;;;;208.00;68.45;;;1.10;99.90;;;;;;5040481;28;20040;-55
2022/12/10 01:34:14;;;;;;;195.55;68.20;;;;;;;;;;5065974;28;20113;-55
2022/12/10 01:36:42;;;;;;;179.75;61.45;;;1.20;99.90;;;;;;5062300;28;20071;-54
2022/12/10 01:39:10;;;;;;;196.20;70.57;;;;;;;;;;5054574;28;20043;-53
2022/12/10 01:41:40;;;;;;;215.32;72.78;;;1.20;99.90;;;;;;5068408;28;20040;-56
2022/12/10 01:44:08;;;;;;;216.40;69.07;;;;;;;;;;5060106;28;20123;-54
2022/12/10 01:46:36;;;;;;;203.05;67.30;;;;;;;;;;5066697;28;20045;-55
2022/12/10 01:49:04;;;;;;;205.13;65.18;;;;;;;;;;5048157;28;20045;-52
2022/12/10 01:51:35;;;;;;;225.38;72.97;;;1.20;99.90;;;;;;5062120;28;20119;-53
2022/12/10 01:54:02;;;;;;;216.27;73.30;;;;;;;;;;5065566;28;20594;-55
2022/12/10 01:56:28;;;;;;;214.77;69.38;;;;;;;;;;5054063;28;20447;-56
2022/12/10 01:58:55;;;;;;;219.82;71.75;;;;;;;;;;5064605;28;20059;-51
2022/12/10 02:01:21;;;;;;;212.07;71.70;;;1.10;99.90;;;;;;5053284;28;20048;-55
2022/12/10 02:04:31;;;;;;;180.77;66.25;;;0.70;99.90;;;;;;5066018;28;20044;-54
2022/12/10 02:07:01;;;;;;;205.05;72.63;;;;;;;;;;5002686;28;20068;-54
2022/12/10 02:09:53;;;;;;;201.63;69.68;;;;;;;;;;5061119;28;20040;-55
2022/12/10 02:12:30;;;;;;;201.18;67.68;;;0.60;99.90;;;;;;5029464;28;20551;-54
2022/12/10 02:15:12;;;;;;;186.38;65.90;;;0.80;99.90;;;;;;5059956;28;20047;-57
2022/12/10 02:17:45;;;;;;;191.63;67.93;;;1.00;99.90;;;;;;5043064;28;20398;-56
2022/12/10 02:20:15;;;;;;;182.38;62.30;;;0.80;99.90;;;;;;5055636;28;20071;-55
2022/12/10 02:22:48;;;;;;;179.55;65.03;;;0.60;99.90;;;;;;5041678;28;20098;-57
2022/12/10 02:25:15;;;;;;;170.55;62.45;;;0.60;99.90;;;;;;5046532;28;20033;-54
2022/12/10 02:27:45;;;;;;;157.75;62.75;;;;;;;;;;5064551;28;20040;-54
2022/12/10 02:30:11;;;;;;;167.93;61.75;;;;;;;;;;5056497;28;20029;-56
2022/12/10 02:32:41;;;;;;;187.82;62.65;;;;;;;;;;5058391;28;20293;-55
2022/12/10 02:35:16;;;;;;;157.18;59.22;;;1.30;99.90;;;;;;5046431;28;20049;-55
2022/12/10 02:37:46;;;;;;;161.63;62.30;;;;;;;;;;5072126;28;20068;-55
2022/12/10 02:40:16;;;;;;;179.57;64.57;;;;;;;;;;5062025;28;20411;-52
2022/12/10 02:42:44;;;;;;;173.45;62.67;;;0.20;99.90;;;;;;5052115;28;20133;-54
2022/12/10 02:45:10;;;;;;;163.88;57.70;;;;;;;;;;5065574;28;20439;-54
2022/12/10 02:47:37;;;;;;;170.00;60.28;;;;;;;;;;5065146;28;20032;-54
2022/12/10 02:50:04;;;;;;;176.07;66.63;;;1.00;99.90;;;;;;5058223;28;20491;-57
2022/12/10 02:52:29;;;;;;;166.98;59.75;;;0.70;99.90;;;;;;5038462;28;20179;-52
2022/12/10 02:54:55;;;;;;;172.27;64.85;;;;;;;;;;5064475;28;20072;-55
2022/12/10 02:57:41;;;;;;;169.32;67.28;;;;;;;;;;5062889;28;20350;-58
2022/12/10 03:00:07;;;;;;;172.63;65.57;;;;;;;;;;5056759;28;20040;-52
2022/12/10 03:02:41;;;;;;;164.48;65.97;;;;;;;;;;5063683;28;20282;-55
2022/12/10 03:05:12;;;;;;;171.40;63.67;;;;;;;;;;5050844;28;20041;-56
2022/12/10 03:08:07;;;;;;;184.77;62.97;;;1.10;99.90;;;;;;5053344;28;20490;-52
2022/12/10 03:10:49;;;;;;;182.02;59.90;;;0.50;99.90;;;;;;5063406;28;20036;-52
2022/12/10 03:13:15;;;;;;;171.98;66.45;;;;;;;;;;5057866;28;20403;-55
2022/12/10 03:15:42;;;;;;;171.07;63.45;;;;;;;;;;5067286;28;20083;-52
2022/12/10 03:18:09;;;;;;;161.27;61.40;;;;;;;;;;5064646;28;20036;-52
2022/12/10 03:20:41;;;;;;;171.30;62.97;;;0.60;99.90;;;;;;5066404;28;20040;-55
2022/12/10 03:23:09;;;;;;;183.82;64.05;;;;;;;;;;5041752;28;20049;-53
2022/12/10 03:25:35;;;;;;;176.68;62.95;;;;;;;;;;5059284;28;20036;-54
2022/12/10 03:28:01;;;;;;;196.90;66.57;;;;;;;;;;5067067;28;20500;-52
2022/12/10 03:30:28;;;;;;;223.77;73.72;;;;;;;;;;5064920;28;20490;-54
2022/12/10 03:32:54;;;;;;;195.65;67.80;;;;;;;;;;5069743;28;20445;-57
2022/12/10 03:35:21;;;;;;;227.68;74.13;;;;;;;;;;5056355;28;20037;-53
2022/12/10 03:37:49;;;;;;;229.57;72.10;;;0.80;99.90;;;;;;5041498;28;20044;-52
2022/12/10 03:40:15;;;;;;;262.33;80.40;;;;;;;;;;5068383;28;20118;-56
2022/12/10 03:42:41;;;;;;;283.95;84.30;;;0.80;99.90;;;;;;5059667;28;20037;-53
2022/12/10 03:45:07;;;;;;;322.40;88.30;;;;;;;;;;5065326;28;20037;-54
2022/12/10 03:47:33;;;;;;;280.48;74.10;;;0.90;99.90;;;;;;5051570;28;20032;-55
2022/12/10 03:49:59;;;;;;;418.25;98.65;;;;;;;;;;5062746;28;20485;-54
2022/12/10 03:52:25;;;;;;;365.30;90.88;;;;;;;;;;5073082;28;20273;-55
2022/12/10 03:54:51;;;;;;;392.85;97.75;;;;;;;;;;5060778;28;20453;-53
2022/12/10 03:57:18;;;;;;;381.42;93.55;;;;;;;;;;5025483;28;20052;-52
2022/12/10 03:59:44;;;;;;;381.88;88.72;;;;;;;;;;5060156;28;20474;-52
2022/12/10 04:02:10;;;;;;;324.08;83.50;;;;;;;;;;5065416;28;20048;-52
2022/12/10 04:04:36;;;;;;;462.58;110.35;;;;;;;;;;5056253;28;20096;-56
2022/12/10 04:07:02;;;;;;;411.85;95.10;;;;;;;;;;5064948;28;20029;-52
2022/12/10 04:09:28;;;;;;;367.80;90.43;;;;;;;;;;5066571;28;20174;-56
2022/12/10 04:11:58;;;;;;;287.17;77.20;;;;;;;;;;5058815;28;20044;-52
2022/12/10 04:17:09;;;;;;;436.83;103.15;;;;;;;;;;5061815;28;20124;-55
2022/12/10 04:19:36;;;;;;;386.45;92.13;;;;;;;;;;5059517;28;20040;-56
2022/12/10 04:27:33;;;;;;;422.58;95.80;;;;;;;;;;5055540;28;20037;-52
2022/12/10 04:30:00;;;;;;;371.63;86.88;;;1.00;99.90;;;;;;5069718;28;20131;-52
2022/12/10 04:32:27;;;;;;;412.13;98.28;;;;;;;;;;5068341;28;20490;-52
2022/12/10 04:34:53;;;;;;;269.20;72.95;;;1.10;99.90;;;;;;5061498;28;20544;-55
2022/12/10 04:37:19;;;;;;;388.15;90.00;;;;;;;;;;5067469;28;20127;-56
2022/12/10 04:39:45;;;;;;;397.02;90.30;;;;;;;;;;5048858;28;20040;-55
2022/12/10 04:42:11;;;;;;;279.67;68.93;;;1.20;99.90;;;;;;5062859;28;20044;-54
2022/12/10 04:44:37;;;;;;;433.15;96.05;;;1.10;99.90;;;;;;5044909;28;20115;-55
2022/12/10 04:47:04;;;;;;;410.23;94.15;;;;;;;;;;5057373;28;20028;-54
2022/12/10 04:49:31;;;;;;;447.25;99.93;;;1.20;99.90;;;;;;5057748;28;20115;-52
2022/12/10 04:51:56;;;;;;;351.30;83.40;;;1.00;99.90;;;;;;5063718;28;20040;-52
2022/12/10 04:54:22;;;;;;;312.20;75.72;;;1.10;99.90;;;;;;5061623;28;20406;-55
2022/12/10 04:56:48;;;;;;;344.95;76.28;;;;;;;;;;5067197;28;20051;-53
2022/12/10 04:59:15;;;;;;;421.20;90.13;;;;;;;;;;5059078;28;20530;-53
2022/12/10 05:01:40;;;;;;;342.95;75.45;;;1.00;99.90;;;;;;5059815;28;20044;-54
2022/12/10 05:04:09;;;;;;;322.95;71.47;;;1.40;99.90;;;;;;5052403;28;20468;-56
2022/12/10 05:06:35;;;;;;;379.60;83.72;;;1.10;99.90;;;;;;5059543;28;20079;-56
2022/12/10 05:09:01;;;;;;;417.55;86.50;;;;;;;;;;5061407;28;20483;-54
2022/12/10 05:11:28;;;;;;;377.92;77.80;;;;;;;;;;5062265;28;20043;-56
2022/12/10 05:13:55;;;;;;;390.55;79.00;;;;;;;;;;5058792;28;20033;-52
2022/12/10 05:16:22;;;;;;;343.08;71.47;;;1.40;99.90;;;;;;5057925;28;20255;-52
2022/12/10 05:18:49;;;;;;;348.30;68.10;;;1.00;99.90;;;;;;5058024;28;20503;-52
2022/12/10 05:21:17;;;;;;;309.25;66.15;;;1.30;99.90;;;;;;5061970;28;20097;-50
2022/12/10 05:23:44;;;;;;;353.90;70.68;;;;;;;;;;5042854;28;20427;-53
2022/12/10 05:26:12;;;;;;;353.73;70.47;;;1.50;99.90;;;;;;5059200;28;20040;-54
2022/12/10 05:28:42;;;;;;;364.25;74.32;;;1.40;99.90;;;;;;5037441;28;20077;-52
2022/12/10 05:31:13;;;;;;;338.13;68.05;;;;;;;;;;5059282;28;20033;-52
2022/12/10 05:33:39;;;;;;;315.10;67.90;;;;;;;;;;5056428;28;20056;-53
2022/12/10 05:36:05;;;;;;;332.67;72.45;;;;;;;;;;5057423;28;20513;-53
2022/12/10 05:38:32;;;;;;;290.42;59.63;;;;;;;;;;5061821;28;20040;-55
2022/12/10 05:41:11;;;;;;;251.48;55.30;;;;;;;;;;5059005;28;20051;-53
2022/12/10 05:43:37;;;;;;;191.93;49.35;;;;;;;;;;5067384;28;20055;-52
2022/12/10 05:46:05;;;;;;;244.93;52.88;;;1.30;99.90;;;;;;5064031;28;20036;-54
2022/12/10 05:48:32;;;;;;;228.95;53.53;;;;;;;;;;5058179;28;20040;-53
2022/12/10 05:50:57;;;;;;;226.38;48.95;;;0.80;99.90;;;;;;5042284;28;20470;-50
2022/12/10 05:53:24;;;;;;;260.35;55.78;;;;;;;;;;5070910;28;20115;-50
2022/12/10 05:55:50;;;;;;;401.05;71.60;;;;;;;;;;5064302;28;20072;-51
2022/12/10 05:58:16;;;;;;;330.63;63.13;;;;;;;;;;5045702;28;20366;-51
2022/12/10 06:00:43;;;;;;;279.67;61.55;;;;;;;;;;5058403;28;20466;-52
2022/12/10 06:03:09;;;;;;;309.90;65.13;;;0.70;99.90;;;;;;5045247;28;20132;-54
2022/12/10 06:05:39;;;;;;;309.02;61.92;;;0.50;99.90;;;;;;5056268;28;20465;-51
2022/12/10 06:08:05;;;;;;;336.33;65.22;;;;;;;;;;5060969;28;20028;-51
2022/12/10 06:10:31;;;;;;;281.98;59.22;;;;;;;;;;5043992;28;20060;-51
2022/12/10 06:12:57;;;;;;;255.20;56.53;;;;;;;;;;5040343;28;20041;-53
2022/12/10 06:15:23;;;;;;;246.85;51.90;;;;;;;;;;5057196;28;20296;-52
2022/12/10 06:17:49;;;;;;;250.38;56.78;;;;;;;;;;5063967;28;20461;-54
2022/12/10 06:20:15;;;;;;;239.88;53.42;;;0.70;99.90;;;;;;5066801;28;20111;-52
2022/12/10 06:22:42;;;;;;;300.90;60.75;;;0.70;99.90;;;;;;5073642;28;20131;-52
2022/12/10 06:25:08;;;;;;;214.77;50.95;;;;;;;;;;5076028;28;20490;-54
2022/12/10 06:27:34;;;;;;;328.15;64.20;;;;;;;;;;5060503;28;20464;-55
2022/12/10 06:30:01;;;;;;;289.73;59.85;;;;;;;;;;5040627;28;20043;-52
2022/12/10 06:32:27;;;;;;;250.93;53.75;;;;;;;;;;5052070;28;20195;-52
2022/12/10 06:34:53;;;;;;;310.55;62.05;;;;;;;;;;5057453;28;20490;-52
2022/12/10 06:37:19;;;;;;;301.25;60.60;;;;;;;;;;5057919;28;20109;-51
2022/12/10 06:39:44;;;;;;;284.60;61.00;;;0.80;99.90;;;;;;5061949;28;20078;-52
2022/12/10 06:42:10;;;;;;;312.20;62.70;;;0.80;99.90;;;;;;5065729;28;20375;-52
2022/12/10 06:44:36;;;;;;;305.45;61.22;;;0.90;99.90;;;;;;5047302;28;20051;-53
2022/12/10 06:47:02;;;;;;;236.38;47.95;;;;;;;;;;5036370;28;20036;-55
2022/12/10 06:49:28;;;;;;;269.90;55.90;;;;;;;;;;5063033;28;20044;-57
2022/12/10 06:51:54;;;;;;;300.67;64.90;;;;;;;;;;5070403;28;20086;-54
2022/12/10 06:54:20;;;;;;;265.23;52.92;;;;;;;;;;5068704;28;20357;-53
2022/12/10 06:56:46;;;;;;;263.55;53.97;;;;;;;;;;5071988;28;20040;-52
2022/12/10 06:59:13;;;;;;;279.55;54.33;;;;;;;;;;5041933;28;20095;-52
2022/12/10 07:01:39;;;;;;;176.68;40.45;;;;;;;;;;5063357;28;20040;-52
2022/12/10 07:04:05;;;;;;;257.55;51.55;;;;;;;;;;5073798;28;20079;-55
2022/12/10 07:06:32;;;;;;;232.05;51.13;;;;;;;;;;5046386;28;20037;-54
2022/12/10 07:08:58;;;;;;;292.88;53.50;;;0.80;99.90;;;;;;5069194;28;20037;-53
2022/12/10 07:11:24;;;;;;;247.27;50.78;;;0.70;99.90;;;;;;5068846;28;20560;-54
2022/12/10 07:13:51;;;;;;;237.85;45.40;;;0.90;99.90;;;;;;5068960;28;20393;-52
2022/12/10 07:16:30;;;;;;;297.02;55.97;;;;;;;;;;5063266;28;20040;-52
2022/12/10 07:19:00;;;;;;;275.73;51.42;;;1.40;99.90;;;;;;5061447;28;20037;-52
2022/12/10 07:21:27;;;;;;;228.30;48.90;;;;;;;;;;5044223;28;20051;-52
2022/12/10 07:23:55;;;;;;;217.80;43.45;;;;;;;;;;5069228;28;20036;-55
2022/12/10 07:26:22;;;;;;;198.73;42.00;;;;;;;;;;5056517;28;20589;-54
2022/12/10 07:28:48;;;;;;;199.88;43.17;;;;;;;;;;5041952;28;20510;-52
2022/12/10 07:31:14;;;;;;;208.90;42.50;;;1.00;99.90;;;;;;5073390;28;20494;-54
2022/12/10 07:33:40;;;;;;;256.65;50.30;;;;;;;;;;5045871;28;20037;-54
2022/12/10 07:36:07;;;;;;;230.27;44.58;;;;;;;;;;5060965;28;20494;-55
2022/12/10 07:38:33;;;;;;;228.88;44.67;;;;;;;;;;5054839;28;20513;-52
2022/12/10 07:41:06;;;;;;;233.25;43.50;;;0.60;99.90;;;;;;5054413;28;20048;-55
2022/12/10 07:43:39;;;;;;;216.45;42.13;;;;;;;;;;5053525;28;20028;-54
2022/12/10 07:46:05;;;;;;;265.05;47.97;;;;;;;;;;5050859;28;20127;-54
2022/12/10 07:48:31;;;;;;;230.45;44.28;;;;;;;;;;5021766;28;20475;-54
2022/12/10 07:50:57;;;;;;;225.27;43.03;;;1.10;99.90;;;;;;5047176;28;20075;-55
2022/12/10 07:53:23;;;;;;;242.23;44.88;;;1.10;99.90;;;;;;5061837;28;20243;-52
2022/12/10 07:55:50;;;;;;;244.45;45.45;;;1.00;99.90;;;;;;5056236;28;20040;-54
2022/12/10 07:58:15;;;;;;;219.98;42.92;;;1.10;99.90;;;;;;5056707;28;20037;-52
2022/12/10 08:00:41;;;;;;;226.68;43.75;;;;;;;;;;5069577;28;20119;-54
2022/12/10 08:03:07;;;;;;;215.98;41.05;;;;;;;;;;5064777;28;20102;-56
2022/12/10 08:05:33;;;;;;;229.18;49.08;;;;;;;;;;5056728;28;20353;-53
2022/12/10 08:07:59;;;;;;;280.27;50.78;;;;;;;;;;5062285;28;20040;-52
2022/12/10 08:10:25;;;;;;;283.13;50.63;;;1.20;99.90;;;;;;5058355;28;20060;-52
2022/12/10 08:12:51;;;;;;;312.63;54.75;;;;;;;;;;5058767;28;20491;-56
2022/12/10 08:15:17;;;;;;;287.92;52.60;;;1.10;99.90;;;;;;5047766;28;20185;-53
2022/12/10 08:17:43;;;;;;;290.25;50.67;;;;;;;;;;5066564;28;20115;-55
2022/12/10 08:20:09;;;;;;;253.10;51.75;;;1.70;99.90;;;;;;5054796;28;20402;-55
2022/12/10 08:22:36;;;;;;;300.83;52.92;;;;;;;;;;5061048;28;20576;-54
2022/12/10 08:25:02;;;;;;;258.88;51.88;;;;;;;;;;5068511;28;20035;-52
2022/12/10 08:27:28;;;;;;;222.68;44.05;;;;;;;;;;5060048;28;20039;-57
2022/12/10 08:29:54;;;;;;;157.45;36.97;;;1.20;99.90;;;;;;5066579;28;20068;-52
2022/12/10 08:32:20;;;;;;;185.80;41.90;;;;;;;;;;5042413;28;20460;-54
2022/12/10 08:34:46;;;;;;;225.57;45.45;;;;;;;;;;5063277;28;20040;-54
2022/12/10 08:37:12;;;;;;;240.27;49.58;;;;;;;;;;5057981;28;20059;-53
2022/12/10 08:39:40;;;;;;;252.73;51.85;;;;;;;;;;5062089;28;20524;-54
2022/12/10 08:42:05;;;;;;;247.13;49.88;;;1.30;99.90;;;;;;5069886;28;20071;-52
2022/12/10 08:44:31;;;;;;;213.88;45.03;;;1.20;99.90;;;;;;5063635;28;20029;-52
2022/12/10 08:46:57;;;;;;;253.20;49.22;;;1.20;99.90;;;;;;5051853;28;20120;-52
2022/12/10 08:49:23;;;;;;;213.55;45.85;;;;;;;;;;5059922;28;20119;-53
2022/12/10 08:51:49;;;;;;;189.02;41.20;;;;;;;;;;5042852;28;20491;-53
2022/12/10 08:54:15;;;;;;;236.38;49.60;;;1.40;99.90;;;;;;5057191;28;20044;-52
2022/12/10 08:56:41;;;;;;;245.38;49.78;;;;;;;;;;5060943;28;20098;-52
2022/12/10 08:59:07;;;;;;;266.13;53.35;;;;;;;;;;5054250;28;20402;-52
2022/12/10 09:01:33;;;;;;;181.93;42.42;;;;;;;;;;5060939;28;20502;-53
2022/12/10 09:04:00;;;;;;;219.95;48.35;;;;;;;;;;5052235;28;20587;-52
2022/12/10 09:06:27;;;;;;;234.50;49.92;;;;;;;;;;5059867;28;20090;-56
2022/12/10 09:08:53;;;;;;;220.32;47.00;;;1.40;99.90;;;;;;5049868;28;20483;-55
2022/12/10 09:11:26;;;;;;;202.88;43.08;;;;;;;;;;5057299;28;20048;-55
2022/12/10 09:13:53;;;;;;;218.02;47.65;;;;;;;;;;5040957;28;20041;-52
2022/12/10 09:16:19;;;;;;;184.57;44.40;;;;;;;;;;5055521;28;20052;-53
2022/12/10 09:18:45;;;;;;;210.02;46.05;;;;;;;;;;5058391;28;20456;-55
2022/12/10 09:21:13;;;;;;;188.02;43.17;;;;;;;;;;5035319;28;20045;-53
2022/12/10 09:23:39;;;;;;;178.40;44.42;;;1.40;99.90;;;;;;5058665;28;20115;-56
2022/12/10 09:26:07;;;;;;;227.77;47.00;;;;;;;;;;5064365;28;20036;-52
2022/12/10 09:28:33;;;;;;;203.30;44.13;;;1.40;99.90;;;;;;5069539;28;20071;-52
2022/12/10 09:31:00;;;;;;;223.95;49.17;;;;;;;;;;5058404;28;20056;-55
2022/12/10 09:33:27;;;;;;;217.80;49.25;;;1.70;99.90;;;;;;5060247;28;20115;-53
2022/12/10 09:35:53;;;;;;;188.32;44.55;;;;;;;;;;5039690;28;20076;-53
2022/12/10 09:38:19;;;;;;;212.80;49.13;;;;;;;;;;5035175;28;20467;-52
2022/12/10 09:41:00;;;;;;;198.70;48.50;;;1.50;99.90;;;;;;5057604;28;20036;-53
2022/12/10 09:43:35;;;;;;;199.20;46.50;;;;;;;;;;5061088;28;20040;-53
2022/12/10 09:46:20;;;;;;;168.60;42.97;;;;;;;;;;5058514;28;20086;-55
2022/12/10 09:48:46;;;;;;;251.63;51.05;;;;;;;;;;5058457;28;20502;-55
2022/12/10 09:51:23;;;;;;;243.68;52.80;;;;;;;;;;5065049;28;20044;-53
2022/12/10 09:53:58;;;;;;;219.07;47.08;;;;;;;;;;5053499;28;20044;-53
2022/12/10 09:56:35;;;;;;;234.38;50.03;;;1.40;99.90;;;;;;5058339;28;20129;-51
2022/12/10 09:59:15;;;;;;;150.85;39.15;;;1.50;99.90;;;;;;5057754;28;20037;-53
2022/12/10 10:01:42;;;;;;;219.02;46.03;;;;;;;;;;5040527;28;20482;-54
2022/12/10 10:04:09;;;;;;;207.35;46.55;;;;;;;;;;5033660;28;20033;-54
2022/12/10 10:06:35;;;;;;;214.40;50.42;;;1.20;99.90;;;;;;5058359;28;20036;-52
2022/12/10 10:09:02;;;;;;;203.55;47.30;;;0.90;99.90;;;;;;5058171;28;20440;-53
2022/12/10 10:11:31;;;;;;;274.67;54.25;;;0.60;99.90;;;;;;5057152;28;20131;-56
2022/12/10 10:14:04;;;;;;;248.57;52.15;;;;;;;;;;5057870;28;20029;-53
2022/12/10 10:16:33;;;;;;;164.65;38.10;;;;;;;;;;5068052;28;20098;-56
2022/12/10 10:19:01;;;;;;;178.95;40.75;;;;;;;;;;5056255;28;20072;-55
2022/12/10 10:21:34;;;;;;;207.30;46.70;;;;;;;;;;5067411;28;20036;-55
2022/12/10 10:24:00;;;;;;;129.88;34.47;;;;;;;;;;5066338;28;20055;-51
2022/12/10 10:26:26;;;;;;;140.13;36.33;;;;;;;;;;5060434;28;20593;-52
2022/12/10 10:29:13;;;;;;;210.35;45.80;;;;;;;;;;5058164;28;20091;-52
2022/12/10 10:31:40;;;;;;;167.55;40.80;;;;;;;;;;5043447;28;20060;-52
2022/12/10 10:34:14;;;;;;;186.80;43.05;;;1.20;99.90;;;;;;5035940;28;20525;-53
2022/12/10 10:36:41;;;;;;;;;;;1.40;99.90;;;;;;5057404;28;20506;-52
2022/12/10 10:39:11;;;;;;;177.45;41.15;;;;;;;;;;5058245;28;20377;-52
2022/12/10 10:41:39;;;;;;;198.98;45.67;;;1.00;99.90;;;;;;5043534;28;20044;-53
2022/12/10 10:44:15;;;;;;;163.95;40.03;;;1.30;99.90;;;;;;5062260;28;20036;-52
2022/12/10 10:46:41;;;;;;;187.32;43.75;;;;;;;;;;5062001;28;20032;-52
2022/12/10 10:49:21;;;;;;;171.50;40.00;;;1.70;99.90;;;;;;5058490;28;20514;-54
2022/12/10 10:51:47;;;;;;;241.85;51.20;;;1.20;99.90;;;;;;5067297;28;20559;-52
2022/12/10 10:54:30;;;;;;;212.20;46.45;;;;;;;;;;5058562;28;20127;-51
2022/12/10 10:56:56;;;;;;;204.05;47.55;;;;;;;;;;5065481;28;20036;-54
2022/12/10 10:59:36;;;;;;;232.75;51.17;;;;;;;;;;5054657;28;20119;-53
2022/12/10 11:02:28;;;;;;;195.00;47.33;;;;;;;;;;5065303;28;20407;-52
2022/12/10 11:04:58;;;;;;;171.20;43.75;;;;;;;;;;5022650;28;20519;-52
2022/12/10 11:07:33;;;;;;;235.75;50.53;;;1.30;99.90;;;;;;5037337;28;20056;-52
2022/12/10 11:09:59;;;;;;;213.52;51.33;;;;;;;;;;5052528;28;20033;-52
2022/12/10 11:12:39;;;;;;;165.25;44.53;;;1.40;99.90;;;;;;5054840;28;20092;-52
2022/12/10 11:15:31;;;;;;;166.68;42.88;;;1.40;99.90;;;;;;5058196;28;20040;-53
2022/12/10 11:17:57;;;;;;;183.73;48.28;;;1.30;99.90;;;;;;5044024;28;20098;-52
2022/12/10 11:20:28;;;;;;;146.20;42.75;;;;;;;;;;5054616;28;20495;-52
2022/12/10 11:23:01;;;;;;;207.15;52.25;;;;;;;;;;5056419;28;20054;-54
2022/12/10 11:25:30;;;;;;;204.23;50.78;;;;;;;;;;5061170;28;20506;-53
2022/12/10 11:28:01;;;;;;;198.90;51.78;;;;;;;;;;5057421;28;20115;-53
2022/12/10 11:30:27;;;;;;;256.15;62.83;;;;;;;;;;5064062;28;20291;-52
2022/12/10 11:33:12;;;;;;;163.55;47.10;;;1.00;99.90;;;;;;5047262;28;20494;-51
2022/12/10 11:36:02;;;;;;;166.85;44.05;;;1.60;99.90;;;;;;5059627;28;20513;-54
2022/12/10 11:38:41;;;;;;;145.07;43.47;;;;;;;;;;5038673;28;20545;-55
2022/12/10 11:41:15;;;;;;;130.57;40.25;;;;;;;;;;5059248;28;20098;-50
2022/12/10 11:43:56;;;;;;;143.82;41.60;;;1.60;99.90;;;;;;5063921;28;20430;-51
2022/12/10 11:46:31;;;;;;;124.95;39.72;;;1.80;99.90;;;;;;5054089;28;20037;-51
2022/12/10 11:49:00;;;;;;;130.10;41.33;;;;;;;;;;5057224;28;20037;-55
2022/12/10 11:52:02;;;;;;;109.15;36.92;;;1.60;99.90;;;;;;5064765;28;20036;-54
2022/12/10 11:55:06;;;;;;;92.75;32.67;;;1.40;99.90;;;;;;5043607;28;20048;-55
2022/12/10 11:57:35;;;;;;;90.82;35.00;;;;;;;;;;5061083;28;20518;-54
2022/12/10 12:00:13;;;;;;;94.28;34.17;;;1.60;99.90;;;;;;5057000;28;20406;-52
2022/12/10 12:02:46;;;;;;;96.60;34.50;;;;;;;;;;5059782;28;20400;-54
2022/12/10 12:05:35;;;;;;;105.20;36.58;;;;;;;;;;5056019;28;20040;-50
2022/12/10 12:08:18;;;;;;;106.82;35.63;;;1.50;99.90;;;;;;5015647;28;20044;-51
2022/12/10 12:10:46;;;;;;;112.25;37.28;;;1.70;99.90;;;;;;5062131;28;20568;-52
2022/12/10 12:13:14;;;;;;;103.80;35.08;;;;;;;;;;5062500;28;20037;-51
2022/12/10 12:15:59;;;;;;;107.13;37.58;;;1.70;99.90;;;;;;5055748;28;20041;-51
2022/12/10 12:18:43;;;;;;;102.20;36.53;;;1.40;99.90;;;;;;5057876;28;20055;-50
2022/12/10 12:21:11;;;;;;;111.37;33.90;;;2.00;99.90;;;;;;5041101;28;20283;-52
2022/12/10 12:23:37;;;;;;;93.40;34.42;;;;;;;;;;5060182;28;20032;-54
2022/12/10 12:26:23;;;;;;;122.85;36.22;;;1.50;99.90;;;;;;5060445;28;20182;-51
2022/12/10 12:28:58;;;;;;;111.30;37.58;;;1.60;99.90;;;;;;5056515;28;20517;-51
2022/12/10 12:31:33;;;;;;;120.25;40.15;;;;;;;;;;5060764;28;20502;-54
2022/12/10 12:34:28;;;;;;;114.00;37.15;;;1.70;99.90;;;;;;5068240;28;20103;-50
2022/12/10 12:36:55;;;;;;;114.85;35.78;;;;;;;;;;5062361;28;20037;-55
2022/12/10 12:39:28;;;;;;;107.75;37.85;;;;;;;;;;5064432;28;20128;-51
2022/12/10 12:41:54;;;;;;;116.30;38.90;;;;;;;;;;5042856;28;20047;-50
2022/12/10 12:44:46;;;;;;;116.88;37.55;;;;;;;;;;5064478;28;20503;-53
2022/12/10 12:47:31;;;;;;;110.85;35.83;;;;;;;;;;5054569;28;20087;-50
2022/12/10 12:49:58;;;;;;;89.32;33.20;;;;;;;;;;5068210;28;20059;-50
2022/12/10 12:52:27;;;;;;;102.35;35.67;;;;;;;;;;5049891;28;20041;-54
2022/12/10 12:55:00;;;;;;;74.88;31.52;;;1.40;99.90;;;;;;5056905;28;20115;-51
2022/12/10 12:57:42;;;;;;;79.35;30.73;;;;;;;;;;5066879;28;20086;-54
2022/12/10 13:00:17;;;;;;;106.13;35.47;;;;;;;;;;5065910;28;20168;-50
2022/12/10 13:03:02;;;;;;;77.05;30.60;;;;;;;;;;5040781;28;20098;-52
2022/12/10 13:05:31;;;;;;;87.90;31.50;;;1.60;99.90;;;;;;5054964;28;20469;-53
2022/12/10 13:08:31;;;;;;;90.53;31.55;;;;;;;;;;5069242;28;20063;-51
2022/12/10 13:11:10;;;;;;;81.05;31.45;;;1.80;99.90;;;;;;5013285;28;20045;-51
2022/12/10 13:13:37;;;;;;;69.25;27.35;;;;;;;;;;5061873;28;20056;-50
2022/12/10 13:16:41;;;;;;;76.25;29.65;;;1.60;99.90;;;;;;5053557;28;20049;-54
2022/12/10 13:19:19;;;;;;;69.93;28.40;;;;;;;;;;5065670;28;20048;-52
2022/12/10 13:21:51;;;;;;;66.35;28.10;;;1.90;99.90;;;;;;5057189;28;20567;-50
2022/12/10 13:24:22;;;;;;;71.78;28.65;;;;;;;;;;5046608;28;20157;-50
2022/12/10 13:27:33;;;;;;;82.97;30.95;;;1.60;99.90;;;;;;5067451;28;20083;-53
2022/12/10 13:30:04;;;;;;;61.22;22.77;;;;;;;;;;4958456;28;20067;-53
2022/12/10 13:32:30;;;;;;;89.30;33.40;;;1.80;99.90;;;;;;5027911;28;20052;-51
2022/12/10 13:35:07;;;;;;;87.97;33.00;;;1.70;99.90;;;;;;5056974;28;20094;-53
2022/12/10 13:37:36;;;;;;;99.75;36.10;;;;;;;;;;5062537;28;20040;-54
2022/12/10 13:40:08;;;;;;;88.03;33.53;;;1.90;99.90;;;;;;5059829;28;20616;-51
2022/12/10 13:45:23;;;;;;;89.63;32.25;;;;;;;;;;5061276;28;20068;-53
2022/12/10 13:47:53;;;;;;;105.78;34.10;;;;;;;;;;5053683;28;20075;-51
2022/12/10 13:50:20;;;;;;;80.97;31.10;;;;;;;;;;5022279;28;20045;-51
2022/12/10 13:53:00;;;;;;;82.90;33.08;;;;;;;;;;5060852;28;20040;-53